sensor_id;sensor_type;location;lat;lon;timestamp;temperature;humidity
2212;DHT22;48849;48.758;9.158;2023-02-28T00:00:53;4.50;99.90
2212;DHT22;48849;48.758;9.158;2023-02-28T00:03:20;4.50;99.90
2212;DHT22;48849;48.758;9.158;2023-02-28T00:05:48;4.40;99.90
2212;DHT22;48849;48.758;9.158;2023-02-28T00:08:14;4.40;99.90
2212;DHT22;48849;48.758;9.158;2023-02-28T00:10:41;4.40;99.90
2212;DHT22;48849;48.758;9.158;2023-02-28T00:13:08;4.40;99.90
2212;DHT22;48849;48.758;9.158;2023-02-28T00:15:35;4.40;99.90
2212;DHT22;48849;48.758;9.158;2023-02-28T00:18:02;4.40;99.90
2212;DHT22;48849;48.758;9.158;2023-02-28T00:20:29;4.50;99.90
2212;DHT22;48849;48.758;9.158;2023-02-28T00:22:57;4.40;99.90
2212;DHT22;48849;48.758;9.158;2023-02-28T00:25:25;4.40;99.90
2212;DHT22;48849;48.758;9.158;2023-02-28T00:27:52;4.40;99.90
2212;DHT22;48849;48.758;9.158;2023-02-28T00:30:20;4.30;99.90
2212;DHT22;48849;48.758;9.158;2023-02-28T00:32:47;4.30;99.90
2212;DHT22;48849;48.758;9.158;2023-02-28T00:35:14;4.30;99.90
2212;DHT22;48849;48.758;9.158;2023-02-28T00:37:41;4.20;99.90
2212;DHT22;48849;48.758;9.158;2023-02-28T00:40:10;4.30;99.90
2212;DHT22;48849;48.758;9.158;2023-02-28T00:42:38;4.20;99.90
2212;DHT22;48849;48.758;9.158;2023-02-28T00:45:06;4.20;99.90
2212;DHT22;48849;48.758;9.158;2023-02-28T00:47:33;4.20;99.90
2212;DHT22;48849;48.758;9.158;2023-02-28T00:50:00;4.20;99.90
2212;DHT22;48849;48.758;9.158;2023-02-28T00:52:27;4.20;99.90
2212;DHT22;48849;48.758;9.158;2023-02-28T00:54:54;4.20;99.90
2212;DHT22;48849;48.758;9.158;2023-02-28T00:57:22;4.20;99.90
2212;DHT22;48849;48.758;9.158;2023-02-28T00:59:49;4.20;99.90
2212;DHT22;48849;48.758;9.158;2023-02-28T01:02:15;4.20;99.90
2212;DHT22;48849;48.758;9.158;2023-02-28T01:04:43;4.20;99.90
2212;DHT22;48849;48.758;9.158;2023-02-28T01:07:10;4.20;99.90
2212;DHT22;48849;48.758;9.158;2023-02-28T01:09:36;4.10;99.90
2212;DHT22;48849;48.758;9.158;2023-02-28T01:12:03;4.10;99.90
2212;DHT22;48849;48.758;9.158;2023-02-28T01:14:31;4.10;99.90
2212;DHT22;48849;48.758;9.158;2023-02-28T01:16:58;4.00;99.90
2212;DHT22;48849;48.758;9.158;2023-02-28T01:19:25;4.10;99.90
2212;DHT22;48849;48.758;9.158;2023-02-28T01:21:51;4.10;99.90
2212;DHT22;48849;48.758;9.158;2023-02-28T01:24:18;4.10;99.90
2212;DHT22;48849;48.758;9.158;2023-02-28T01:26:45;4.10;99.90
2212;DHT22;48849;48.758;9.158;2023-02-28T01:29:12;4.10;99.90
2212;DHT22;48849;48.758;9.158;2023-02-28T01:31:40;4.00;99.90
2212;DHT22;48849;48.758;9.158;2023-02-28T01:34:06;4.10;99.90
2212;DHT22;48849;48.758;9.158;2023-02-28T01:36:33;4.10;99.90
2212;DHT22;48849;48.758;9.158;2023-02-28T01:39:00;4.10;99.90
2212;DHT22;48849;48.758;9.158;2023-02-28T01:41:29;4.10;99.90
2212;DHT22;48849;48.758;9.158;2023-02-28T01:44:02;4.00;99.90
2212;DHT22;48849;48.758;9.158;2023-02-28T01:46:31;4.10;99.90
2212;DHT22;48849;48.758;9.158;2023-02-28T01:49:03;4.00;99.90
2212;DHT22;48849;48.758;9.158;2023-02-28T01:51:36;4.00;99.90
2212;DHT22;48849;48.758;9.158;2023-02-28T01:54:07;4.00;99.90
2212;DHT22;48849;48.758;9.158;2023-02-28T01:56:41;3.90;99.90
2212;DHT22;48849;48.758;9.158;2023-02-28T01:59:08;3.90;99.90
2212;DHT22;48849;48.758;9.158;2023-02-28T02:01:35;3.90;99.90
2212;DHT22;48849;48.758;9.158;2023-02-28T02:04:04;3.90;99.90
2212;DHT22;48849;48.758;9.158;2023-02-28T02:06:37;3.90;99.90
2212;DHT22;48849;48.758;9.158;2023-02-28T02:09:04;3.90;99.90
2212;DHT22;48849;48.758;9.158;2023-02-28T02:11:31;3.90;99.90
2212;DHT22;48849;48.758;9.158;2023-02-28T02:14:24;4.00;99.90
2212;DHT22;48849;48.758;9.158;2023-02-28T02:17:07;3.90;99.90
2212;DHT22;48849;48.758;9.158;2023-02-28T02:23:16;4.00;99.90
2212;DHT22;48849;48.758;9.158;2023-02-28T02:25:53;4.00;99.90
2212;DHT22;48849;48.758;9.158;2023-02-28T02:28:44;4.00;99.90
2212;DHT22;48849;48.758;9.158;2023-02-28T02:34:24;4.00;99.90
2212;DHT22;48849;48.758;9.158;2023-02-28T02:37:00;3.90;99.90
2212;DHT22;48849;48.758;9.158;2023-02-28T02:39:33;3.90;99.90
2212;DHT22;48849;48.758;9.158;2023-02-28T02:42:05;4.00;99.90
2212;DHT22;48849;48.758;9.158;2023-02-28T02:44:40;3.90;99.90
2212;DHT22;48849;48.758;9.158;2023-02-28T02:47:11;3.90;99.90
2212;DHT22;48849;48.758;9.158;2023-02-28T02:49:43;3.90;99.90
2212;DHT22;48849;48.758;9.158;2023-02-28T02:52:15;3.90;99.90
2212;DHT22;48849;48.758;9.158;2023-02-28T02:54:46;3.90;99.90
2212;DHT22;48849;48.758;9.158;2023-02-28T02:57:20;3.90;99.90
2212;DHT22;48849;48.758;9.158;2023-02-28T02:59:48;3.90;99.90
2212;DHT22;48849;48.758;9.158;2023-02-28T03:02:17;3.90;99.90
2212;DHT22;48849;48.758;9.158;2023-02-28T03:04:47;3.90;99.90
2212;DHT22;48849;48.758;9.158;2023-02-28T03:07:15;3.90;99.90
2212;DHT22;48849;48.758;9.158;2023-02-28T03:09:50;4.00;99.90
2212;DHT22;48849;48.758;9.158;2023-02-28T03:12:17;4.00;99.90
2212;DHT22;48849;48.758;9.158;2023-02-28T03:14:52;4.00;99.90
2212;DHT22;48849;48.758;9.158;2023-02-28T03:20:31;4.00;99.90
2212;DHT22;48849;48.758;9.158;2023-02-28T03:23:07;4.00;99.90
2212;DHT22;48849;48.758;9.158;2023-02-28T03:25:44;3.90;99.90
2212;DHT22;48849;48.758;9.158;2023-02-28T03:28:18;3.90;99.90
2212;DHT22;48849;48.758;9.158;2023-02-28T03:30:49;3.90;99.90
2212;DHT22;48849;48.758;9.158;2023-02-28T03:33:22;3.90;99.90
2212;DHT22;48849;48.758;9.158;2023-02-28T03:35:55;3.90;99.90
2212;DHT22;48849;48.758;9.158;2023-02-28T03:38:29;3.90;99.90
2212;DHT22;48849;48.758;9.158;2023-02-28T03:41:01;3.90;99.90
2212;DHT22;48849;48.758;9.158;2023-02-28T03:43:35;4.00;99.90
2212;DHT22;48849;48.758;9.158;2023-02-28T03:46:07;4.00;99.90
2212;DHT22;48849;48.758;9.158;2023-02-28T03:48:38;4.00;99.90
2212;DHT22;48849;48.758;9.158;2023-02-28T03:51:12;4.00;99.90
2212;DHT22;48849;48.758;9.158;2023-02-28T03:53:44;4.00;99.90
2212;DHT22;48849;48.758;9.158;2023-02-28T03:56:16;4.00;99.90
2212;DHT22;48849;48.758;9.158;2023-02-28T03:58:49;4.00;99.90
2212;DHT22;48849;48.758;9.158;2023-02-28T04:01:21;4.00;99.90
2212;DHT22;48849;48.758;9.158;2023-02-28T04:03:50;4.00;99.90
2212;DHT22;48849;48.758;9.158;2023-02-28T04:06:20;4.00;99.90
2212;DHT22;48849;48.758;9.158;2023-02-28T04:08:48;4.00;99.90
2212;DHT22;48849;48.758;9.158;2023-02-28T04:11:21;4.00;99.90
2212;DHT22;48849;48.758;9.158;2023-02-28T04:13:48;4.00;99.90
2212;DHT22;48849;48.758;9.158;2023-02-28T04:16:15;4.00;99.90
2212;DHT22;48849;48.758;9.158;2023-02-28T04:18:42;4.00;99.90
2212;DHT22;48849;48.758;9.158;2023-02-28T04:21:09;4.10;99.90
2212;DHT22;48849;48.758;9.158;2023-02-28T04:23:38;4.10;99.90
2212;DHT22;48849;48.758;9.158;2023-02-28T04:26:04;4.00;99.90
2212;DHT22;48849;48.758;9.158;2023-02-28T04:28:32;4.00;99.90
2212;DHT22;48849;48.758;9.158;2023-02-28T04:31:00;4.00;99.90
2212;DHT22;48849;48.758;9.158;2023-02-28T04:33:27;4.00;99.90
2212;DHT22;48849;48.758;9.158;2023-02-28T04:36:01;4.00;99.90
2212;DHT22;48849;48.758;9.158;2023-02-28T04:38:28;4.00;99.90
2212;DHT22;48849;48.758;9.158;2023-02-28T04:40:58;4.00;99.90
2212;DHT22;48849;48.758;9.158;2023-02-28T04:43:25;4.10;99.90
2212;DHT22;48849;48.758;9.158;2023-02-28T04:45:52;4.00;99.90
2212;DHT22;48849;48.758;9.158;2023-02-28T04:48:19;4.00;99.90
2212;DHT22;48849;48.758;9.158;2023-02-28T04:50:46;4.00;99.90
2212;DHT22;48849;48.758;9.158;2023-02-28T04:53:13;4.10;99.90
2212;DHT22;48849;48.758;9.158;2023-02-28T04:55:39;4.10;99.90
2212;DHT22;48849;48.758;9.158;2023-02-28T04:58:07;4.00;99.90
2212;DHT22;48849;48.758;9.158;2023-02-28T05:00:34;4.10;99.90
2212;DHT22;48849;48.758;9.158;2023-02-28T05:03:01;4.10;99.90
2212;DHT22;48849;48.758;9.158;2023-02-28T05:05:28;4.10;99.90
2212;DHT22;48849;48.758;9.158;2023-02-28T05:07:54;4.10;99.90
2212;DHT22;48849;48.758;9.158;2023-02-28T05:10:21;4.10;99.90
2212;DHT22;48849;48.758;9.158;2023-02-28T05:12:48;4.10;99.90
2212;DHT22;48849;48.758;9.158;2023-02-28T05:15:16;4.10;99.90
2212;DHT22;48849;48.758;9.158;2023-02-28T05:17:43;4.10;99.90
2212;DHT22;48849;48.758;9.158;2023-02-28T05:20:11;4.10;99.90
2212;DHT22;48849;48.758;9.158;2023-02-28T05:22:38;4.10;99.90
2212;DHT22;48849;48.758;9.158;2023-02-28T05:25:06;4.10;99.90
2212;DHT22;48849;48.758;9.158;2023-02-28T05:27:33;4.10;99.90
2212;DHT22;48849;48.758;9.158;2023-02-28T05:30:00;4.10;99.90
2212;DHT22;48849;48.758;9.158;2023-02-28T05:32:30;4.10;99.90
2212;DHT22;48849;48.758;9.158;2023-02-28T05:34:56;4.10;99.90
2212;DHT22;48849;48.758;9.158;2023-02-28T05:37:23;4.00;99.90
2212;DHT22;48849;48.758;9.158;2023-02-28T05:39:50;4.00;99.90
2212;DHT22;48849;48.758;9.158;2023-02-28T05:42:16;4.10;99.90
2212;DHT22;48849;48.758;9.158;2023-02-28T05:44:43;4.10;99.90
2212;DHT22;48849;48.758;9.158;2023-02-28T05:47:10;4.10;99.90
2212;DHT22;48849;48.758;9.158;2023-02-28T05:49:39;4.10;99.90
2212;DHT22;48849;48.758;9.158;2023-02-28T05:52:06;4.10;99.90
2212;DHT22;48849;48.758;9.158;2023-02-28T05:54:32;4.10;99.90
2212;DHT22;48849;48.758;9.158;2023-02-28T05:56:59;4.10;99.90
2212;DHT22;48849;48.758;9.158;2023-02-28T05:59:26;4.10;99.90
2212;DHT22;48849;48.758;9.158;2023-02-28T06:01:55;4.10;99.90
2212;DHT22;48849;48.758;9.158;2023-02-28T06:04:22;4.20;99.90
2212;DHT22;48849;48.758;9.158;2023-02-28T06:06:51;4.20;99.90
2212;DHT22;48849;48.758;9.158;2023-02-28T06:09:18;4.20;99.90
2212;DHT22;48849;48.758;9.158;2023-02-28T06:11:45;4.20;99.90
2212;DHT22;48849;48.758;9.158;2023-02-28T06:14:15;4.20;99.90
2212;DHT22;48849;48.758;9.158;2023-02-28T06:16:42;4.20;99.90
2212;DHT22;48849;48.758;9.158;2023-02-28T06:19:09;4.10;99.90
2212;DHT22;48849;48.758;9.158;2023-02-28T06:21:36;4.10;99.90
2212;DHT22;48849;48.758;9.158;2023-02-28T06:24:05;4.10;99.90
2212;DHT22;48849;48.758;9.158;2023-02-28T06:26:32;4.10;99.90
2212;DHT22;48849;48.758;9.158;2023-02-28T06:28:58;4.10;99.90
2212;DHT22;48849;48.758;9.158;2023-02-28T06:31:26;4.10;99.90
2212;DHT22;48849;48.758;9.158;2023-02-28T06:33:55;4.10;99.90
2212;DHT22;48849;48.758;9.158;2023-02-28T06:36:21;4.10;99.90
2212;DHT22;48849;48.758;9.158;2023-02-28T06:38:48;4.10;99.90
2212;DHT22;48849;48.758;9.158;2023-02-28T06:41:21;4.10;99.90
2212;DHT22;48849;48.758;9.158;2023-02-28T06:43:49;4.10;99.90
2212;DHT22;48849;48.758;9.158;2023-02-28T06:46:16;4.20;99.90
2212;DHT22;48849;48.758;9.158;2023-02-28T06:48:43;4.20;99.90
2212;DHT22;48849;48.758;9.158;2023-02-28T06:51:12;4.20;99.90
2212;DHT22;48849;48.758;9.158;2023-02-28T06:53:40;4.20;99.90
2212;DHT22;48849;48.758;9.158;2023-02-28T06:56:08;4.20;99.90
2212;DHT22;48849;48.758;9.158;2023-02-28T06:58:37;4.20;99.90
2212;DHT22;48849;48.758;9.158;2023-02-28T07:01:05;4.20;99.90
2212;DHT22;48849;48.758;9.158;2023-02-28T07:03:32;4.20;99.90
2212;DHT22;48849;48.758;9.158;2023-02-28T07:05:59;4.20;99.90
2212;DHT22;48849;48.758;9.158;2023-02-28T07:08:26;4.20;99.90
2212;DHT22;48849;48.758;9.158;2023-02-28T07:10:53;4.20;99.90
2212;DHT22;48849;48.758;9.158;2023-02-28T07:13:20;4.30;99.90
2212;DHT22;48849;48.758;9.158;2023-02-28T07:15:54;4.40;99.90
2212;DHT22;48849;48.758;9.158;2023-02-28T07:18:21;4.40;99.90
2212;DHT22;48849;48.758;9.158;2023-02-28T07:20:48;4.40;99.90
2212;DHT22;48849;48.758;9.158;2023-02-28T07:23:15;4.40;99.90
2212;DHT22;48849;48.758;9.158;2023-02-28T07:25:42;4.60;99.90
2212;DHT22;48849;48.758;9.158;2023-02-28T07:28:09;4.60;99.90
2212;DHT22;48849;48.758;9.158;2023-02-28T07:30:36;4.60;99.90
2212;DHT22;48849;48.758;9.158;2023-02-28T07:33:04;4.60;99.90
2212;DHT22;48849;48.758;9.158;2023-02-28T07:35:31;4.60;99.90
2212;DHT22;48849;48.758;9.158;2023-02-28T07:37:58;4.60;99.90
2212;DHT22;48849;48.758;9.158;2023-02-28T07:40:25;4.60;99.90
2212;DHT22;48849;48.758;9.158;2023-02-28T07:42:53;4.60;99.90
2212;DHT22;48849;48.758;9.158;2023-02-28T07:45:20;4.60;99.90
2212;DHT22;48849;48.758;9.158;2023-02-28T07:47:47;4.50;99.90
2212;DHT22;48849;48.758;9.158;2023-02-28T07:50:15;4.50;99.90
2212;DHT22;48849;48.758;9.158;2023-02-28T07:52:42;4.50;99.90
2212;DHT22;48849;48.758;9.158;2023-02-28T07:55:10;4.50;99.90
2212;DHT22;48849;48.758;9.158;2023-02-28T07:57:36;4.50;99.90
2212;DHT22;48849;48.758;9.158;2023-02-28T08:00:05;4.50;99.90
2212;DHT22;48849;48.758;9.158;2023-02-28T08:02:32;4.50;99.90
2212;DHT22;48849;48.758;9.158;2023-02-28T08:05:00;4.50;99.90
2212;DHT22;48849;48.758;9.158;2023-02-28T08:07:28;4.50;99.90
2212;DHT22;48849;48.758;9.158;2023-02-28T08:09:54;4.50;99.90
2212;DHT22;48849;48.758;9.158;2023-02-28T08:12:21;4.50;99.90
2212;DHT22;48849;48.758;9.158;2023-02-28T08:14:48;4.50;99.90
2212;DHT22;48849;48.758;9.158;2023-02-28T08:17:14;4.60;99.90
2212;DHT22;48849;48.758;9.158;2023-02-28T08:19:41;4.60;99.90
2212;DHT22;48849;48.758;9.158;2023-02-28T08:22:08;4.60;99.90
2212;DHT22;48849;48.758;9.158;2023-02-28T08:24:36;4.60;99.90
2212;DHT22;48849;48.758;9.158;2023-02-28T08:27:02;4.60;99.90
2212;DHT22;48849;48.758;9.158;2023-02-28T08:29:29;4.60;99.90
2212;DHT22;48849;48.758;9.158;2023-02-28T08:31:56;4.60;99.90
2212;DHT22;48849;48.758;9.158;2023-02-28T08:34:24;4.60;99.90
2212;DHT22;48849;48.758;9.158;2023-02-28T08:36:51;4.60;99.90
2212;DHT22;48849;48.758;9.158;2023-02-28T08:39:18;4.60;99.90
2212;DHT22;48849;48.758;9.158;2023-02-28T08:41:46;4.60;99.90
2212;DHT22;48849;48.758;9.158;2023-02-28T08:44:13;4.60;99.90
2212;DHT22;48849;48.758;9.158;2023-02-28T08:46:40;4.60;99.90
2212;DHT22;48849;48.758;9.158;2023-02-28T08:49:06;4.70;99.90
2212;DHT22;48849;48.758;9.158;2023-02-28T08:51:35;4.60;99.90
2212;DHT22;48849;48.758;9.158;2023-02-28T08:54:01;4.60;99.90
2212;DHT22;48849;48.758;9.158;2023-02-28T08:56:28;4.70;99.90
2212;DHT22;48849;48.758;9.158;2023-02-28T08:58:57;4.70;99.90
2212;DHT22;48849;48.758;9.158;2023-02-28T09:01:26;4.70;99.90
2212;DHT22;48849;48.758;9.158;2023-02-28T09:03:54;4.70;99.90
2212;DHT22;48849;48.758;9.158;2023-02-28T09:06:23;4.70;99.90
2212;DHT22;48849;48.758;9.158;2023-02-28T09:08:51;4.70;99.90
2212;DHT22;48849;48.758;9.158;2023-02-28T09:11:18;4.70;99.90
2212;DHT22;48849;48.758;9.158;2023-02-28T09:13:46;4.80;99.90
2212;DHT22;48849;48.758;9.158;2023-02-28T09:16:15;4.80;99.90
2212;DHT22;48849;48.758;9.158;2023-02-28T09:18:43;4.80;99.90
2212;DHT22;48849;48.758;9.158;2023-02-28T09:21:14;4.80;99.90
2212;DHT22;48849;48.758;9.158;2023-02-28T09:23:41;4.80;99.90
2212;DHT22;48849;48.758;9.158;2023-02-28T09:26:12;4.80;99.90
2212;DHT22;48849;48.758;9.158;2023-02-28T09:28:39;4.80;99.90
2212;DHT22;48849;48.758;9.158;2023-02-28T09:31:06;4.80;99.90
2212;DHT22;48849;48.758;9.158;2023-02-28T09:33:34;4.80;99.90
2212;DHT22;48849;48.758;9.158;2023-02-28T09:36:02;4.80;99.90
2212;DHT22;48849;48.758;9.158;2023-02-28T09:38:29;4.80;99.90
2212;DHT22;48849;48.758;9.158;2023-02-28T09:40:58;4.90;99.90
2212;DHT22;48849;48.758;9.158;2023-02-28T09:43:28;4.90;99.90
2212;DHT22;48849;48.758;9.158;2023-02-28T09:46:00;4.90;99.90
2212;DHT22;48849;48.758;9.158;2023-02-28T09:48:33;5.00;99.90
2212;DHT22;48849;48.758;9.158;2023-02-28T09:51:04;4.90;99.90
2212;DHT22;48849;48.758;9.158;2023-02-28T09:53:33;4.90;99.90
2212;DHT22;48849;48.758;9.158;2023-02-28T09:56:04;5.00;99.90
2212;DHT22;48849;48.758;9.158;2023-02-28T09:58:37;5.00;99.90
2212;DHT22;48849;48.758;9.158;2023-02-28T10:01:11;5.00;99.90
2212;DHT22;48849;48.758;9.158;2023-02-28T10:03:42;5.00;99.90
2212;DHT22;48849;48.758;9.158;2023-02-28T10:06:14;5.00;99.90
2212;DHT22;48849;48.758;9.158;2023-02-28T10:08:47;5.10;99.90
2212;DHT22;48849;48.758;9.158;2023-02-28T10:11:16;5.10;99.90
2212;DHT22;48849;48.758;9.158;2023-02-28T10:13:51;5.10;99.90
2212;DHT22;48849;48.758;9.158;2023-02-28T10:16:25;5.10;99.90
2212;DHT22;48849;48.758;9.158;2023-02-28T10:19:00;5.10;99.90
2212;DHT22;48849;48.758;9.158;2023-02-28T10:21:34;5.10;99.90
2212;DHT22;48849;48.758;9.158;2023-02-28T10:24:14;5.20;99.90
2212;DHT22;48849;48.758;9.158;2023-02-28T10:26:45;5.20;99.90
2212;DHT22;48849;48.758;9.158;2023-02-28T10:29:13;5.20;99.90
2212;DHT22;48849;48.758;9.158;2023-02-28T10:31:40;5.20;99.90
2212;DHT22;48849;48.758;9.158;2023-02-28T10:34:12;5.20;99.90
2212;DHT22;48849;48.758;9.158;2023-02-28T10:36:39;5.30;99.90
2212;DHT22;48849;48.758;9.158;2023-02-28T10:39:39;5.30;99.90
2212;DHT22;48849;48.758;9.158;2023-02-28T10:42:22;5.30;99.90
2212;DHT22;48849;48.758;9.158;2023-02-28T10:45:05;5.30;99.90
2212;DHT22;48849;48.758;9.158;2023-02-28T10:47:34;5.30;99.90
2212;DHT22;48849;48.758;9.158;2023-02-28T10:50:03;5.40;99.90
2212;DHT22;48849;48.758;9.158;2023-02-28T10:52:36;5.40;99.90
2212;DHT22;48849;48.758;9.158;2023-02-28T10:55:18;5.40;99.90
2212;DHT22;48849;48.758;9.158;2023-02-28T10:57:46;5.50;99.90
2212;DHT22;48849;48.758;9.158;2023-02-28T11:00:16;5.50;99.90
2212;DHT22;48849;48.758;9.158;2023-02-28T11:02:43;5.50;99.90
2212;DHT22;48849;48.758;9.158;2023-02-28T11:05:28;5.60;99.90
2212;DHT22;48849;48.758;9.158;2023-02-28T11:07:57;5.70;99.90
2212;DHT22;48849;48.758;9.158;2023-02-28T11:10:29;5.70;99.90
2212;DHT22;48849;48.758;9.158;2023-02-28T11:12:58;5.70;99.90
2212;DHT22;48849;48.758;9.158;2023-02-28T11:15:27;5.80;99.90
2212;DHT22;48849;48.758;9.158;2023-02-28T11:17:55;5.80;99.90
2212;DHT22;48849;48.758;9.158;2023-02-28T11:20:26;5.80;99.90
2212;DHT22;48849;48.758;9.158;2023-02-28T11:22:54;5.80;99.90
2212;DHT22;48849;48.758;9.158;2023-02-28T11:25:25;5.80;99.90
2212;DHT22;48849;48.758;9.158;2023-02-28T11:27:54;5.80;99.90
2212;DHT22;48849;48.758;9.158;2023-02-28T11:30:34;5.80;99.90
2212;DHT22;48849;48.758;9.158;2023-02-28T11:33:10;5.80;99.90
2212;DHT22;48849;48.758;9.158;2023-02-28T11:35:48;5.80;99.90
2212;DHT22;48849;48.758;9.158;2023-02-28T11:38:16;5.90;99.90
2212;DHT22;48849;48.758;9.158;2023-02-28T11:40:48;6.10;99.90
2212;DHT22;48849;48.758;9.158;2023-02-28T11:43:27;6.20;99.90
2212;DHT22;48849;48.758;9.158;2023-02-28T11:46:18;6.30;99.90
2212;DHT22;48849;48.758;9.158;2023-02-28T11:48:58;8.10;99.90
2212;DHT22;48849;48.758;9.158;2023-02-28T11:51:33;6.80;99.90
2212;DHT22;48849;48.758;9.158;2023-02-28T11:54:23;6.90;99.90
2212;DHT22;48849;48.758;9.158;2023-02-28T11:56:56;7.00;99.90
2212;DHT22;48849;48.758;9.158;2023-02-28T11:59:44;7.10;99.90
2212;DHT22;48849;48.758;9.158;2023-02-28T12:02:28;7.10;99.90
2212;DHT22;48849;48.758;9.158;2023-02-28T12:05:08;7.20;99.90
2212;DHT22;48849;48.758;9.158;2023-02-28T12:07:46;7.30;99.90
2212;DHT22;48849;48.758;9.158;2023-02-28T12:10:20;7.50;99.90
2212;DHT22;48849;48.758;9.158;2023-02-28T12:13:01;7.70;99.90
2212;DHT22;48849;48.758;9.158;2023-02-28T12:15:52;7.90;99.90
2212;DHT22;48849;48.758;9.158;2023-02-28T12:18:40;8.30;99.90
2212;DHT22;48849;48.758;9.158;2023-02-28T12:21:20;8.70;99.90
2212;DHT22;48849;48.758;9.158;2023-02-28T12:24:00;8.90;99.90
2212;DHT22;48849;48.758;9.158;2023-02-28T12:26:34;8.80;99.90
2212;DHT22;48849;48.758;9.158;2023-02-28T12:29:10;8.70;99.90
2212;DHT22;48849;48.758;9.158;2023-02-28T12:31:44;8.60;99.90
2212;DHT22;48849;48.758;9.158;2023-02-28T12:34:13;8.50;99.90
2212;DHT22;48849;48.758;9.158;2023-02-28T12:36:43;8.50;99.90
2212;DHT22;48849;48.758;9.158;2023-02-28T12:39:15;8.50;99.90
2212;DHT22;48849;48.758;9.158;2023-02-28T12:41:47;8.40;99.90
2212;DHT22;48849;48.758;9.158;2023-02-28T12:44:20;8.30;99.90
2212;DHT22;48849;48.758;9.158;2023-02-28T12:46:50;8.20;99.90
2212;DHT22;48849;48.758;9.158;2023-02-28T12:49:19;8.10;99.90
2212;DHT22;48849;48.758;9.158;2023-02-28T12:51:48;8.00;99.90
2212;DHT22;48849;48.758;9.158;2023-02-28T12:54:22;8.00;99.90
2212;DHT22;48849;48.758;9.158;2023-02-28T12:56:54;7.90;99.90
2212;DHT22;48849;48.758;9.158;2023-02-28T12:59:27;7.80;99.90
2212;DHT22;48849;48.758;9.158;2023-02-28T13:02:02;7.80;99.90
2212;DHT22;48849;48.758;9.158;2023-02-28T13:04:59;7.70;99.90
2212;DHT22;48849;48.758;9.158;2023-02-28T13:10:43;7.60;99.90
2212;DHT22;48849;48.758;9.158;2023-02-28T13:13:15;7.60;99.90
2212;DHT22;48849;48.758;9.158;2023-02-28T13:16:01;7.60;99.90
2212;DHT22;48849;48.758;9.158;2023-02-28T13:18:34;7.60;99.90
2212;DHT22;48849;48.758;9.158;2023-02-28T13:21:03;7.60;99.90
2212;DHT22;48849;48.758;9.158;2023-02-28T13:23:41;7.60;99.90
2212;DHT22;48849;48.758;9.158;2023-02-28T13:29:33;7.70;99.90
2212;DHT22;48849;48.758;9.158;2023-02-28T13:38:34;7.80;99.90
2212;DHT22;48849;48.758;9.158;2023-02-28T13:44:07;7.60;99.90
2212;DHT22;48849;48.758;9.158;2023-02-28T13:49:27;7.60;99.90
2212;DHT22;48849;48.758;9.158;2023-02-28T13:52:06;7.70;99.90
2212;DHT22;48849;48.758;9.158;2023-02-28T13:54:45;7.70;99.90
2212;DHT22;48849;48.758;9.158;2023-02-28T13:57:25;7.70;99.90
2212;DHT22;48849;48.758;9.158;2023-02-28T14:00:06;7.70;99.90
2212;DHT22;48849;48.758;9.158;2023-02-28T14:02:52;7.70;99.90
2212;DHT22;48849;48.758;9.158;2023-02-28T14:05:24;7.70;99.90
2212;DHT22;48849;48.758;9.158;2023-02-28T14:07:53;7.60;99.90
2212;DHT22;48849;48.758;9.158;2023-02-28T14:10:25;7.70;99.90
2212;DHT22;48849;48.758;9.158;2023-02-28T14:13:10;7.70;99.90
2212;DHT22;48849;48.758;9.158;2023-02-28T14:15:56;7.60;99.90
2212;DHT22;48849;48.758;9.158;2023-02-28T14:18:27;7.70;99.90
2212;DHT22;48849;48.758;9.158;2023-02-28T14:20:58;7.60;99.90
2212;DHT22;48849;48.758;9.158;2023-02-28T14:23:38;7.70;99.90
2212;DHT22;48849;48.758;9.158;2023-02-28T14:26:16;7.70;99.90
2212;DHT22;48849;48.758;9.158;2023-02-28T14:28:55;7.70;99.90
2212;DHT22;48849;48.758;9.158;2023-02-28T14:31:25;7.70;99.90
2212;DHT22;48849;48.758;9.158;2023-02-28T14:34:12;7.70;99.90
2212;DHT22;48849;48.758;9.158;2023-02-28T14:36:41;7.70;99.90
2212;DHT22;48849;48.758;9.158;2023-02-28T14:39:13;7.70;99.90
2212;DHT22;48849;48.758;9.158;2023-02-28T14:41:42;7.70;99.90
2212;DHT22;48849;48.758;9.158;2023-02-28T14:44:18;7.70;99.90
2212;DHT22;48849;48.758;9.158;2023-02-28T14:46:46;7.70;99.90
2212;DHT22;48849;48.758;9.158;2023-02-28T14:49:27;7.70;99.90
2212;DHT22;48849;48.758;9.158;2023-02-28T14:52:03;7.70;99.90
2212;DHT22;48849;48.758;9.158;2023-02-28T14:54:32;7.70;99.90
2212;DHT22;48849;48.758;9.158;2023-02-28T14:59:29;7.70;99.90
2212;DHT22;48849;48.758;9.158;2023-02-28T15:02:15;7.70;99.90
2212;DHT22;48849;48.758;9.158;2023-02-28T15:04:52;7.80;99.90
2212;DHT22;48849;48.758;9.158;2023-02-28T15:10:07;7.70;99.90
2212;DHT22;48849;48.758;9.158;2023-02-28T15:12:34;7.70;99.90
2212;DHT22;48849;48.758;9.158;2023-02-28T15:17:29;7.70;99.90
2212;DHT22;48849;48.758;9.158;2023-02-28T15:19:57;7.70;99.90
2212;DHT22;48849;48.758;9.158;2023-02-28T15:22:28;7.70;99.90
2212;DHT22;48849;48.758;9.158;2023-02-28T15:24:58;7.70;99.90
2212;DHT22;48849;48.758;9.158;2023-02-28T15:27:27;7.70;99.90
2212;DHT22;48849;48.758;9.158;2023-02-28T15:29:59;7.80;99.90
2212;DHT22;48849;48.758;9.158;2023-02-28T15:32:28;7.80;99.90
2212;DHT22;48849;48.758;9.158;2023-02-28T15:34:58;7.80;99.90
2212;DHT22;48849;48.758;9.158;2023-02-28T15:37:28;7.80;99.90
2212;DHT22;48849;48.758;9.158;2023-02-28T15:39:57;7.80;99.90
2212;DHT22;48849;48.758;9.158;2023-02-28T15:42:28;7.80;99.90
2212;DHT22;48849;48.758;9.158;2023-02-28T15:44:57;7.80;99.90
2212;DHT22;48849;48.758;9.158;2023-02-28T15:47:26;7.80;99.90
2212;DHT22;48849;48.758;9.158;2023-02-28T15:49:56;7.70;99.90
2212;DHT22;48849;48.758;9.158;2023-02-28T15:52:27;7.70;99.90
2212;DHT22;48849;48.758;9.158;2023-02-28T15:54:57;7.70;99.90
2212;DHT22;48849;48.758;9.158;2023-02-28T15:57:26;7.70;99.90
2212;DHT22;48849;48.758;9.158;2023-02-28T15:59:56;7.70;99.90
2212;DHT22;48849;48.758;9.158;2023-02-28T16:02:31;7.70;99.90
2212;DHT22;48849;48.758;9.158;2023-02-28T16:05:01;7.70;99.90
2212;DHT22;48849;48.758;9.158;2023-02-28T16:07:30;7.70;99.90
2212;DHT22;48849;48.758;9.158;2023-02-28T16:09:56;7.70;99.90
2212;DHT22;48849;48.758;9.158;2023-02-28T16:12:26;7.70;99.90
2212;DHT22;48849;48.758;9.158;2023-02-28T16:14:56;7.70;99.90
2212;DHT22;48849;48.758;9.158;2023-02-28T16:17:25;7.70;99.90
2212;DHT22;48849;48.758;9.158;2023-02-28T16:19:52;7.60;99.90
2212;DHT22;48849;48.758;9.158;2023-02-28T16:22:19;7.60;99.90
2212;DHT22;48849;48.758;9.158;2023-02-28T16:24:47;7.60;99.90
2212;DHT22;48849;48.758;9.158;2023-02-28T16:27:18;7.60;99.90
2212;DHT22;48849;48.758;9.158;2023-02-28T16:29:46;7.60;99.90
2212;DHT22;48849;48.758;9.158;2023-02-28T16:32:14;7.60;99.90
2212;DHT22;48849;48.758;9.158;2023-02-28T16:34:42;7.60;99.90
2212;DHT22;48849;48.758;9.158;2023-02-28T16:37:11;7.60;99.90
2212;DHT22;48849;48.758;9.158;2023-02-28T16:39:39;7.60;99.90
2212;DHT22;48849;48.758;9.158;2023-02-28T16:42:10;7.60;99.90
2212;DHT22;48849;48.758;9.158;2023-02-28T16:47:04;7.50;99.90
2212;DHT22;48849;48.758;9.158;2023-02-28T16:49:31;7.60;99.90
2212;DHT22;48849;48.758;9.158;2023-02-28T16:51:58;7.50;99.90
2212;DHT22;48849;48.758;9.158;2023-02-28T16:54:25;7.50;99.90
2212;DHT22;48849;48.758;9.158;2023-02-28T16:56:52;7.50;99.90
2212;DHT22;48849;48.758;9.158;2023-02-28T16:59:23;7.50;99.90
2212;DHT22;48849;48.758;9.158;2023-02-28T17:01:50;7.40;99.90